FBFT

Francistown Airport

Francistown, Botswana
METAR FBFT 211900Z 09007KT CAVOK 29/10 Q1015
Observed Flight Rules
Jan-21 @ 19:00 UTC (an hour ago) Visual Flight Rules
Wind Visibility Clouds
90° at 7 knots 10,000+ meters
  • Clear skies
Temperatures Readings
Current 29°C / 84°F
Dewpoint 10°C / 50°F
Humidity 31%
Altimeter 29.97" Hg
Pressure 1015 hPa
Elevation 1000
METAR FBFT 211900Z 09007KT CAVOK 29/10 Q1015
Observed Flight Rules
Jan-21 @ 19:00 UTC
(an hour ago)
VFR
Wind Visibility
90° at 7 knots 10,000+ meters
Clouds
  • Clear skies
Temperature Dewpoint
29°C / 84°F 10°C / 50°F
Humidity Altimeter Pressure
31% 29.97" Hg 1015 hPa